sensor_id;sensor_type;location;lat;lon;timestamp;pressure;altitude;pressure_sealevel;temperature;humidity
64844;BME280;51310;52.198;5.422;2023-05-27T00:02:24;103045.25;;;8.20;73.06
64844;BME280;51310;52.198;5.422;2023-05-27T00:04:51;103058.03;;;8.27;73.13
64844;BME280;51310;52.198;5.422;2023-05-27T00:07:17;102929.28;;;7.41;73.21
64844;BME280;51310;52.198;5.422;2023-05-27T00:09:42;102907.06;;;7.28;73.18
64844;BME280;51310;52.198;5.422;2023-05-27T00:12:08;102941.44;;;7.45;73.37
64844;BME280;51310;52.198;5.422;2023-05-27T00:14:34;103083.94;;;8.19;73.46
64844;BME280;51310;52.198;5.422;2023-05-27T00:16:59;103063.91;;;8.15;73.58
64844;BME280;51310;52.198;5.422;2023-05-27T00:19:27;103053.22;;;7.99;73.65
64844;BME280;51310;52.198;5.422;2023-05-27T00:21:55;103025.09;;;7.79;73.76
64844;BME280;51310;52.198;5.422;2023-05-27T00:24:21;103017.91;;;7.83;73.92
64844;BME280;51310;52.198;5.422;2023-05-27T00:26:47;103051.28;;;8.03;73.77
64844;BME280;51310;52.198;5.422;2023-05-27T00:29:16;102908.72;;;7.10;73.66
64844;BME280;51310;52.198;5.422;2023-05-27T00:31:42;103063.00;;;7.96;74.05
64844;BME280;51310;52.198;5.422;2023-05-27T00:34:07;103060.53;;;7.93;73.90
64844;BME280;51310;52.198;5.422;2023-05-27T00:36:33;103001.56;;;7.56;74.03
64844;BME280;51310;52.198;5.422;2023-05-27T00:39:00;103054.72;;;7.84;74.30
64844;BME280;51310;52.198;5.422;2023-05-27T00:41:27;103029.59;;;7.77;74.08
64844;BME280;51310;52.198;5.422;2023-05-27T00:43:55;103047.69;;;7.85;74.20
64844;BME280;51310;52.198;5.422;2023-05-27T00:46:21;102892.31;;;6.85;74.17
64844;BME280;51310;52.198;5.422;2023-05-27T00:48:47;102876.84;;;6.77;74.43
64844;BME280;51310;52.198;5.422;2023-05-27T00:51:14;103007.22;;;7.47;74.37
64844;BME280;51310;52.198;5.422;2023-05-27T00:53:43;103030.91;;;7.67;74.55
64844;BME280;51310;52.198;5.422;2023-05-27T00:56:11;102998.88;;;7.37;74.49
64844;BME280;51310;52.198;5.422;2023-05-27T00:58:38;102993.38;;;7.42;74.71
64844;BME280;51310;52.198;5.422;2023-05-27T01:01:05;102888.34;;;6.75;74.84
64844;BME280;51310;52.198;5.422;2023-05-27T01:03:32;103002.44;;;7.36;75.07
64844;BME280;51310;52.198;5.422;2023-05-27T01:06:11;102888.56;;;6.70;74.94
64844;BME280;51310;52.198;5.422;2023-05-27T01:09:28;103037.00;;;7.49;75.04
64844;BME280;51310;52.198;5.422;2023-05-27T01:15:02;103032.03;;;7.41;75.43
64844;BME280;51310;52.198;5.422;2023-05-27T01:17:31;103023.97;;;7.25;75.62
64844;BME280;51310;52.198;5.422;2023-05-27T01:20:00;102964.47;;;6.79;75.65
64844;BME280;51310;52.198;5.422;2023-05-27T01:22:29;102992.41;;;7.04;75.77
64844;BME280;51310;52.198;5.422;2023-05-27T01:24:55;102878.94;;;6.27;75.90
64844;BME280;51310;52.198;5.422;2023-05-27T01:27:21;103040.78;;;7.21;75.95
64844;BME280;51310;52.198;5.422;2023-05-27T01:29:51;102997.00;;;6.99;76.14
64844;BME280;51310;52.198;5.422;2023-05-27T01:32:27;103011.03;;;6.99;76.19
64844;BME280;51310;52.198;5.422;2023-05-27T01:35:15;102901.72;;;6.28;76.29
64844;BME280;51310;52.198;5.422;2023-05-27T01:37:45;102962.19;;;6.72;76.38
64844;BME280;51310;52.198;5.422;2023-05-27T01:40:13;102929.78;;;6.49;76.50
64844;BME280;51310;52.198;5.422;2023-05-27T01:42:41;103000.09;;;6.88;76.59
64844;BME280;51310;52.198;5.422;2023-05-27T01:45:10;102996.53;;;6.89;76.93
64844;BME280;51310;52.198;5.422;2023-05-27T01:47:35;103023.41;;;6.97;76.93
64844;BME280;51310;52.198;5.422;2023-05-27T01:50:02;103037.47;;;6.96;76.93
64844;BME280;51310;52.198;5.422;2023-05-27T01:52:28;103023.13;;;6.83;77.21
64844;BME280;51310;52.198;5.422;2023-05-27T01:54:54;103031.88;;;6.83;77.17
64844;BME280;51310;52.198;5.422;2023-05-27T01:57:25;102989.88;;;6.58;77.45
64844;BME280;51310;52.198;5.422;2023-05-27T01:59:50;103031.13;;;6.80;77.41
64844;BME280;51310;52.198;5.422;2023-05-27T02:02:16;103009.06;;;6.62;77.47
64844;BME280;51310;52.198;5.422;2023-05-27T02:04:42;103007.28;;;6.62;77.62
64844;BME280;51310;52.198;5.422;2023-05-27T02:07:07;103024.84;;;6.62;77.89
64844;BME280;51310;52.198;5.422;2023-05-27T02:09:33;102932.38;;;6.05;77.91
64844;BME280;51310;52.198;5.422;2023-05-27T02:11:59;103036.66;;;6.74;77.98
64844;BME280;51310;52.198;5.422;2023-05-27T02:14:25;102926.25;;;6.06;78.07
64844;BME280;51310;52.198;5.422;2023-05-27T02:16:51;102926.34;;;6.03;78.22
64844;BME280;51310;52.198;5.422;2023-05-27T02:19:17;102908.69;;;5.84;78.25
64844;BME280;51310;52.198;5.422;2023-05-27T02:21:46;102908.53;;;5.88;78.29
64844;BME280;51310;52.198;5.422;2023-05-27T02:24:11;103024.09;;;6.58;78.41
64844;BME280;51310;52.198;5.422;2023-05-27T02:26:37;103016.47;;;6.52;78.62
64844;BME280;51310;52.198;5.422;2023-05-27T02:29:03;103002.03;;;6.41;78.81
64844;BME280;51310;52.198;5.422;2023-05-27T02:31:28;103022.50;;;6.54;78.71
64844;BME280;51310;52.198;5.422;2023-05-27T02:33:54;103007.84;;;6.49;78.92
64844;BME280;51310;52.198;5.422;2023-05-27T02:36:20;102942.81;;;6.08;78.87
64844;BME280;51310;52.198;5.422;2023-05-27T02:38:46;102982.91;;;6.35;79.26
64844;BME280;51310;52.198;5.422;2023-05-27T02:41:12;102985.75;;;6.31;79.06
64844;BME280;51310;52.198;5.422;2023-05-27T02:43:38;102954.34;;;6.04;79.22
64844;BME280;51310;52.198;5.422;2023-05-27T02:46:03;102890.81;;;5.70;79.34
64844;BME280;51310;52.198;5.422;2023-05-27T02:48:29;102867.88;;;5.51;79.40
64844;BME280;51310;52.198;5.422;2023-05-27T02:50:55;102972.38;;;6.14;79.31
64844;BME280;51310;52.198;5.422;2023-05-27T02:53:20;102980.56;;;6.06;79.86
64844;BME280;51310;52.198;5.422;2023-05-27T02:55:46;102989.94;;;6.13;79.67
64844;BME280;51310;52.198;5.422;2023-05-27T02:58:12;102978.00;;;6.04;79.80
64844;BME280;51310;52.198;5.422;2023-05-27T03:00:40;103009.13;;;6.15;79.70
64844;BME280;51310;52.198;5.422;2023-05-27T03:03:05;102998.00;;;6.08;80.03
64844;BME280;51310;52.198;5.422;2023-05-27T03:05:33;102878.97;;;5.36;80.02
64844;BME280;51310;52.198;5.422;2023-05-27T03:07:59;103015.50;;;6.09;80.13
64844;BME280;51310;52.198;5.422;2023-05-27T03:10:25;103025.09;;;6.11;80.25
64844;BME280;51310;52.198;5.422;2023-05-27T03:12:54;102880.34;;;5.23;80.24
64844;BME280;51310;52.198;5.422;2023-05-27T03:15:22;103017.34;;;6.07;80.37
64844;BME280;51310;52.198;5.422;2023-05-27T03:17:48;102979.13;;;5.74;80.40
64844;BME280;51310;52.198;5.422;2023-05-27T03:20:14;102976.72;;;5.68;80.60
64844;BME280;51310;52.198;5.422;2023-05-27T03:22:42;103025.00;;;5.89;80.46
64844;BME280;51310;52.198;5.422;2023-05-27T03:25:08;102972.59;;;5.61;80.72
64844;BME280;51310;52.198;5.422;2023-05-27T03:27:34;103025.88;;;5.89;80.82
64844;BME280;51310;52.198;5.422;2023-05-27T03:30:01;103030.13;;;5.93;80.92
64844;BME280;51310;52.198;5.422;2023-05-27T03:32:27;103030.19;;;5.92;80.93
64844;BME280;51310;52.198;5.422;2023-05-27T03:34:53;102994.00;;;5.75;81.01
64844;BME280;51310;52.198;5.422;2023-05-27T03:37:19;102993.00;;;5.77;81.28
64844;BME280;51310;52.198;5.422;2023-05-27T03:39:44;102987.81;;;5.76;81.46
64844;BME280;51310;52.198;5.422;2023-05-27T03:42:10;102994.53;;;5.83;81.23
64844;BME280;51310;52.198;5.422;2023-05-27T03:44:36;102981.72;;;5.75;81.39
64844;BME280;51310;52.198;5.422;2023-05-27T03:47:02;102991.25;;;5.78;81.33
64844;BME280;51310;52.198;5.422;2023-05-27T03:49:28;102849.19;;;4.89;81.50
64844;BME280;51310;52.198;5.422;2023-05-27T03:51:54;102857.50;;;5.02;81.57
64844;BME280;51310;52.198;5.422;2023-05-27T03:54:20;102863.59;;;5.02;81.53
64844;BME280;51310;52.198;5.422;2023-05-27T03:56:45;102863.47;;;5.05;81.87
64844;BME280;51310;52.198;5.422;2023-05-27T03:59:11;102867.88;;;5.05;81.65
64844;BME280;51310;52.198;5.422;2023-05-27T04:01:38;102989.59;;;5.75;82.31
64844;BME280;51310;52.198;5.422;2023-05-27T04:04:03;102859.03;;;5.07;81.78
64844;BME280;51310;52.198;5.422;2023-05-27T04:06:29;102877.06;;;5.16;82.26
64844;BME280;51310;52.198;5.422;2023-05-27T04:08:57;102848.66;;;5.04;82.07
64844;BME280;51310;52.198;5.422;2023-05-27T04:11:26;102912.06;;;5.40;82.36
64844;BME280;51310;52.198;5.422;2023-05-27T04:13:52;103000.41;;;5.91;82.35
64844;BME280;51310;52.198;5.422;2023-05-27T04:16:18;102963.88;;;5.84;82.25
64844;BME280;51310;52.198;5.422;2023-05-27T04:18:44;102967.16;;;5.90;82.54
64844;BME280;51310;52.198;5.422;2023-05-27T04:21:20;102967.34;;;5.84;82.49
64844;BME280;51310;52.198;5.422;2023-05-27T04:23:46;102920.44;;;5.75;82.45
64844;BME280;51310;52.198;5.422;2023-05-27T04:26:12;102935.44;;;5.95;82.58
64844;BME280;51310;52.198;5.422;2023-05-27T04:28:38;102998.91;;;6.31;82.60
64844;BME280;51310;52.198;5.422;2023-05-27T04:31:05;102966.22;;;6.15;82.67
64844;BME280;51310;52.198;5.422;2023-05-27T04:33:31;103001.97;;;6.42;82.77
64844;BME280;51310;52.198;5.422;2023-05-27T04:35:56;102993.81;;;6.48;82.80
64844;BME280;51310;52.198;5.422;2023-05-27T04:38:23;102960.59;;;6.24;82.68
64844;BME280;51310;52.198;5.422;2023-05-27T04:40:51;102953.94;;;6.37;82.66
64844;BME280;51310;52.198;5.422;2023-05-27T04:43:19;102950.06;;;6.46;82.85
64844;BME280;51310;52.198;5.422;2023-05-27T04:45:46;102922.00;;;6.46;83.05
64844;BME280;51310;52.198;5.422;2023-05-27T04:48:12;102963.50;;;6.82;83.05
64844;BME280;51310;52.198;5.422;2023-05-27T04:50:38;102950.69;;;6.94;82.83
64844;BME280;51310;52.198;5.422;2023-05-27T04:53:04;102837.81;;;6.46;82.73
64844;BME280;51310;52.198;5.422;2023-05-27T04:55:30;102978.88;;;7.52;82.66
64844;BME280;51310;52.198;5.422;2023-05-27T04:57:56;102821.03;;;6.69;82.62
64844;BME280;51310;52.198;5.422;2023-05-27T05:00:22;102987.25;;;7.80;82.52
64844;BME280;51310;52.198;5.422;2023-05-27T05:03:02;102975.44;;;7.89;82.50
64844;BME280;51310;52.198;5.422;2023-05-27T05:05:27;102952.66;;;7.88;82.51
64844;BME280;51310;52.198;5.422;2023-05-27T05:07:53;102920.06;;;7.89;82.28
64844;BME280;51310;52.198;5.422;2023-05-27T05:10:19;102976.72;;;8.37;82.42
64844;BME280;51310;52.198;5.422;2023-05-27T05:12:45;102820.34;;;7.61;81.97
64844;BME280;51310;52.198;5.422;2023-05-27T05:15:12;102904.78;;;8.15;81.82
64844;BME280;51310;52.198;5.422;2023-05-27T05:17:38;102979.03;;;8.79;81.62
64844;BME280;51310;52.198;5.422;2023-05-27T05:20:04;102974.41;;;8.84;81.38
64844;BME280;51310;52.198;5.422;2023-05-27T05:22:31;102924.50;;;8.61;81.14
64844;BME280;51310;52.198;5.422;2023-05-27T05:24:57;102969.72;;;8.89;80.90
64844;BME280;51310;52.198;5.422;2023-05-27T05:27:24;102974.53;;;9.16;80.82
64844;BME280;51310;52.198;5.422;2023-05-27T05:29:50;102952.31;;;9.03;80.62
64844;BME280;51310;52.198;5.422;2023-05-27T05:32:16;102930.41;;;9.01;80.39
64844;BME280;51310;52.198;5.422;2023-05-27T05:34:41;102952.47;;;9.17;79.99
64844;BME280;51310;52.198;5.422;2023-05-27T05:37:08;102959.97;;;9.42;79.90
64844;BME280;51310;52.198;5.422;2023-05-27T05:39:36;102954.94;;;9.37;79.82
64844;BME280;51310;52.198;5.422;2023-05-27T05:42:02;102813.25;;;8.34;79.33
64844;BME280;51310;52.198;5.422;2023-05-27T05:44:29;102960.88;;;9.58;79.03
64844;BME280;51310;52.198;5.422;2023-05-27T05:46:54;102825.00;;;8.63;78.71
64844;BME280;51310;52.198;5.422;2023-05-27T05:49:20;102829.81;;;8.72;78.56
64844;BME280;51310;52.198;5.422;2023-05-27T05:51:46;102971.56;;;9.88;78.46
64844;BME280;51310;52.198;5.422;2023-05-27T05:54:12;102931.69;;;9.75;78.14
64844;BME280;51310;52.198;5.422;2023-05-27T05:56:37;102966.19;;;10.05;77.77
64844;BME280;51310;52.198;5.422;2023-05-27T05:59:03;102969.59;;;10.07;77.48
64844;BME280;51310;52.198;5.422;2023-05-27T06:01:29;102855.34;;;9.38;77.06
64844;BME280;51310;52.198;5.422;2023-05-27T06:03:55;102855.34;;;9.38;76.75
64844;BME280;51310;52.198;5.422;2023-05-27T06:06:22;102955.47;;;10.24;76.69
64844;BME280;51310;52.198;5.422;2023-05-27T06:08:48;102954.72;;;10.22;76.08
64844;BME280;51310;52.198;5.422;2023-05-27T06:11:14;102953.78;;;10.23;75.98
64844;BME280;51310;52.198;5.422;2023-05-27T06:13:40;102918.56;;;10.21;75.80
64844;BME280;51310;52.198;5.422;2023-05-27T06:16:06;102929.97;;;10.23;75.62
64844;BME280;51310;52.198;5.422;2023-05-27T06:18:32;102908.50;;;10.12;75.27
64844;BME280;51310;52.198;5.422;2023-05-27T06:20:57;102903.59;;;10.22;75.33
64844;BME280;51310;52.198;5.422;2023-05-27T06:23:23;102884.03;;;10.24;74.89
64844;BME280;51310;52.198;5.422;2023-05-27T06:25:49;102930.78;;;10.69;74.89
64844;BME280;51310;52.198;5.422;2023-05-27T06:28:15;102783.72;;;9.74;74.36
64844;BME280;51310;52.198;5.422;2023-05-27T06:30:41;102890.38;;;10.96;74.32
64844;BME280;51310;52.198;5.422;2023-05-27T06:33:08;102755.22;;;9.79;74.08
64844;BME280;51310;52.198;5.422;2023-05-27T06:35:33;102902.81;;;10.80;74.03
64844;BME280;51310;52.198;5.422;2023-05-27T06:37:59;102916.06;;;10.94;73.64
64844;BME280;51310;52.198;5.422;2023-05-27T06:40:25;102916.28;;;10.91;73.55
64844;BME280;51310;52.198;5.422;2023-05-27T06:42:51;102893.63;;;10.71;73.41
64844;BME280;51310;52.198;5.422;2023-05-27T06:45:16;102868.84;;;10.72;73.37
64844;BME280;51310;52.198;5.422;2023-05-27T06:47:42;102892.97;;;10.82;73.02
64844;BME280;51310;52.198;5.422;2023-05-27T06:50:08;102873.97;;;10.89;73.04
64844;BME280;51310;52.198;5.422;2023-05-27T06:52:34;102917.41;;;11.01;72.91
64844;BME280;51310;52.198;5.422;2023-05-27T06:55:00;102904.38;;;11.26;72.98
64844;BME280;51310;52.198;5.422;2023-05-27T06:57:26;102765.69;;;10.40;72.44
64844;BME280;51310;52.198;5.422;2023-05-27T06:59:52;102881.97;;;11.18;72.50
64844;BME280;51310;52.198;5.422;2023-05-27T07:02:18;102763.19;;;10.53;72.22
64844;BME280;51310;52.198;5.422;2023-05-27T07:04:43;102831.69;;;11.02;71.98
64844;BME280;51310;52.198;5.422;2023-05-27T07:07:09;102751.91;;;10.92;71.91
64844;BME280;51310;52.198;5.422;2023-05-27T07:09:35;102871.00;;;11.65;71.67
64844;BME280;51310;52.198;5.422;2023-05-27T07:12:05;102748.13;;;10.82;71.28
64844;BME280;51310;52.198;5.422;2023-05-27T07:14:33;102895.66;;;11.53;71.13
64844;BME280;51310;52.198;5.422;2023-05-27T07:16:59;102862.00;;;11.68;71.10
64844;BME280;51310;52.198;5.422;2023-05-27T07:19:25;102863.53;;;11.57;70.75
64844;BME280;51310;52.198;5.422;2023-05-27T07:21:51;102780.63;;;11.27;70.58
64844;BME280;51310;52.198;5.422;2023-05-27T07:24:17;102874.50;;;11.80;70.48
64844;BME280;51310;52.198;5.422;2023-05-27T07:26:43;102752.09;;;11.04;70.32
64844;BME280;51310;52.198;5.422;2023-05-27T07:29:08;102861.66;;;12.01;70.30
64844;BME280;51310;52.198;5.422;2023-05-27T07:31:34;102885.44;;;12.29;70.07
64844;BME280;51310;52.198;5.422;2023-05-27T07:34:00;102880.97;;;12.30;69.74
64844;BME280;51310;52.198;5.422;2023-05-27T07:36:26;102887.53;;;12.64;69.32
64844;BME280;51310;52.198;5.422;2023-05-27T07:38:51;102861.06;;;12.75;69.17
64844;BME280;51310;52.198;5.422;2023-05-27T07:41:18;102873.84;;;12.95;68.40
64844;BME280;51310;52.198;5.422;2023-05-27T07:43:44;102751.09;;;12.39;68.14
64844;BME280;51310;52.198;5.422;2023-05-27T07:46:09;102835.25;;;13.02;68.11
64844;BME280;51310;52.198;5.422;2023-05-27T07:48:35;102704.09;;;11.89;67.23
64844;BME280;51310;52.198;5.422;2023-05-27T07:51:01;102854.59;;;12.92;67.23
64844;BME280;51310;52.198;5.422;2023-05-27T07:53:27;102846.84;;;13.27;66.89
64844;BME280;51310;52.198;5.422;2023-05-27T07:55:52;102825.56;;;13.27;66.37
64844;BME280;51310;52.198;5.422;2023-05-27T07:58:18;102809.38;;;13.17;65.85
64844;BME280;51310;52.198;5.422;2023-05-27T08:00:44;102844.91;;;13.16;65.85
64844;BME280;51310;52.198;5.422;2023-05-27T08:03:09;102847.69;;;13.27;65.57
64844;BME280;51310;52.198;5.422;2023-05-27T08:05:36;102836.09;;;13.16;64.96
64844;BME280;51310;52.198;5.422;2023-05-27T08:08:02;102832.16;;;12.96;65.23
64844;BME280;51310;52.198;5.422;2023-05-27T08:10:27;102814.66;;;12.81;65.13
64844;BME280;51310;52.198;5.422;2023-05-27T08:12:53;102832.09;;;12.97;65.02
64844;BME280;51310;52.198;5.422;2023-05-27T08:15:18;102818.88;;;12.83;65.01
64844;BME280;51310;52.198;5.422;2023-05-27T08:17:44;102827.72;;;13.22;64.86
64844;BME280;51310;52.198;5.422;2023-05-27T08:20:10;102792.19;;;13.23;64.60
64844;BME280;51310;52.198;5.422;2023-05-27T08:22:37;102816.88;;;13.62;64.25
64844;BME280;51310;52.198;5.422;2023-05-27T08:25:03;102817.81;;;13.60;63.94
64844;BME280;51310;52.198;5.422;2023-05-27T08:27:53;102785.09;;;13.71;63.69
64844;BME280;51310;52.198;5.422;2023-05-27T08:30:19;102818.28;;;13.78;63.04
64844;BME280;51310;52.198;5.422;2023-05-27T08:32:45;102821.41;;;13.96;62.89
64844;BME280;51310;52.198;5.422;2023-05-27T08:35:12;102803.72;;;13.95;62.41
64844;BME280;51310;52.198;5.422;2023-05-27T08:37:38;102811.03;;;13.80;62.10
64844;BME280;51310;52.198;5.422;2023-05-27T08:40:12;102797.44;;;13.96;61.66
64844;BME280;51310;52.198;5.422;2023-05-27T08:42:40;102668.16;;;13.46;61.67
64844;BME280;51310;52.198;5.422;2023-05-27T08:45:07;102697.22;;;13.60;61.59
64844;BME280;51310;52.198;5.422;2023-05-27T08:47:33;102805.63;;;14.52;60.78
64844;BME280;51310;52.198;5.422;2023-05-27T08:49:59;102748.47;;;14.10;60.48
64844;BME280;51310;52.198;5.422;2023-05-27T08:52:27;102776.69;;;14.48;60.24
64844;BME280;51310;52.198;5.422;2023-05-27T08:54:56;102790.22;;;14.44;59.80
64844;BME280;51310;52.198;5.422;2023-05-27T08:57:28;102778.19;;;14.39;59.69
64844;BME280;51310;52.198;5.422;2023-05-27T08:59:54;102747.25;;;14.14;59.46
64844;BME280;51310;52.198;5.422;2023-05-27T09:02:22;102769.75;;;14.45;59.06
64844;BME280;51310;52.198;5.422;2023-05-27T09:04:49;102749.22;;;14.58;59.19
64844;BME280;51310;52.198;5.422;2023-05-27T09:07:15;102640.72;;;14.03;58.99
64844;BME280;51310;52.198;5.422;2023-05-27T09:09:42;102733.94;;;14.71;58.50
64844;BME280;51310;52.198;5.422;2023-05-27T09:12:07;102755.72;;;14.88;58.41
64844;BME280;51310;52.198;5.422;2023-05-27T09:14:36;102761.56;;;14.93;58.51
64844;BME280;51310;52.198;5.422;2023-05-27T09:17:08;102754.53;;;14.92;57.97
64844;BME280;51310;52.198;5.422;2023-05-27T09:19:34;102755.22;;;15.16;57.85
64844;BME280;51310;52.198;5.422;2023-05-27T09:22:00;102623.31;;;14.66;57.33
64844;BME280;51310;52.198;5.422;2023-05-27T09:24:26;102752.63;;;15.37;57.17
64844;BME280;51310;52.198;5.422;2023-05-27T09:26:53;102759.94;;;15.35;57.26
64844;BME280;51310;52.198;5.422;2023-05-27T09:29:20;102736.00;;;15.45;57.22
64844;BME280;51310;52.198;5.422;2023-05-27T09:31:48;102729.91;;;15.54;56.89
64844;BME280;51310;52.198;5.422;2023-05-27T09:34:16;102709.84;;;15.71;56.61
64844;BME280;51310;52.198;5.422;2023-05-27T09:36:50;102622.75;;;15.38;56.20
64844;BME280;51310;52.198;5.422;2023-05-27T09:39:22;102741.38;;;15.77;55.93
64844;BME280;51310;52.198;5.422;2023-05-27T09:41:53;102636.63;;;15.20;55.98
64844;BME280;51310;52.198;5.422;2023-05-27T09:44:20;102593.31;;;14.96;56.44
64844;BME280;51310;52.198;5.422;2023-05-27T09:46:45;102713.16;;;15.84;56.45
64844;BME280;51310;52.198;5.422;2023-05-27T09:49:14;102696.41;;;15.61;56.09
64844;BME280;51310;52.198;5.422;2023-05-27T09:51:41;102720.81;;;16.09;55.93
64844;BME280;51310;52.198;5.422;2023-05-27T09:54:09;102592.66;;;15.68;55.50
64844;BME280;51310;52.198;5.422;2023-05-27T09:56:35;102724.06;;;16.64;55.40
64844;BME280;51310;52.198;5.422;2023-05-27T09:59:01;102713.19;;;16.87;54.94
64844;BME280;51310;52.198;5.422;2023-05-27T10:01:29;102692.69;;;16.36;54.96
64844;BME280;51310;52.198;5.422;2023-05-27T10:03:56;102656.84;;;16.08;54.84
64844;BME280;51310;52.198;5.422;2023-05-27T10:06:22;102691.84;;;16.35;55.53
64844;BME280;51310;52.198;5.422;2023-05-27T10:08:55;102584.97;;;16.05;56.28
64844;BME280;51310;52.198;5.422;2023-05-27T10:11:25;102684.59;;;16.77;55.58
64844;BME280;51310;52.198;5.422;2023-05-27T10:13:53;102673.09;;;16.96;55.21
64844;BME280;51310;52.198;5.422;2023-05-27T10:16:21;102559.78;;;16.28;54.33
64844;BME280;51310;52.198;5.422;2023-05-27T10:18:52;102715.66;;;17.09;53.74
64844;BME280;51310;52.198;5.422;2023-05-27T10:21:20;102708.41;;;16.90;53.02
64844;BME280;51310;52.198;5.422;2023-05-27T10:24:10;102668.75;;;16.65;52.64
64844;BME280;51310;52.198;5.422;2023-05-27T10:26:42;102573.25;;;16.17;52.38
64844;BME280;51310;52.198;5.422;2023-05-27T10:29:14;102678.50;;;17.16;51.77
64844;BME280;51310;52.198;5.422;2023-05-27T10:31:52;102634.69;;;16.97;51.01
64844;BME280;51310;52.198;5.422;2023-05-27T10:34:18;102646.22;;;16.98;50.47
64844;BME280;51310;52.198;5.422;2023-05-27T10:36:45;102667.94;;;17.62;50.66
64844;BME280;51310;52.198;5.422;2023-05-27T10:39:16;102676.69;;;17.84;50.47
64844;BME280;51310;52.198;5.422;2023-05-27T10:44:36;102557.81;;;17.09;49.15
64844;BME280;51310;52.198;5.422;2023-05-27T10:47:11;102615.69;;;17.49;49.15
64844;BME280;51310;52.198;5.422;2023-05-27T10:49:40;102657.09;;;17.74;49.01
64844;BME280;51310;52.198;5.422;2023-05-27T10:52:16;102656.13;;;17.75;48.81
64844;BME280;51310;52.198;5.422;2023-05-27T10:54:46;102656.97;;;17.66;48.57
64844;BME280;51310;52.198;5.422;2023-05-27T10:57:13;102651.97;;;18.09;48.27
64844;BME280;51310;52.198;5.422;2023-05-27T10:59:48;102636.13;;;17.69;48.19
64844;BME280;51310;52.198;5.422;2023-05-27T11:02:24;102621.44;;;17.63;48.09
64844;BME280;51310;52.198;5.422;2023-05-27T11:04:54;102636.19;;;17.97;47.70
64844;BME280;51310;52.198;5.422;2023-05-27T11:07:21;102540.44;;;17.42;47.54
64844;BME280;51310;52.198;5.422;2023-05-27T11:09:49;102627.91;;;18.27;46.88
64844;BME280;51310;52.198;5.422;2023-05-27T11:12:20;102629.56;;;18.01;46.96
64844;BME280;51310;52.198;5.422;2023-05-27T11:14:55;102570.84;;;17.80;47.07
64844;BME280;51310;52.198;5.422;2023-05-27T11:17:22;102582.88;;;18.03;47.09
64844;BME280;51310;52.198;5.422;2023-05-27T11:19:49;102589.34;;;18.10;47.13
64844;BME280;51310;52.198;5.422;2023-05-27T11:22:16;102603.59;;;18.38;47.79
64844;BME280;51310;52.198;5.422;2023-05-27T11:24:55;102594.81;;;18.18;48.15
64844;BME280;51310;52.198;5.422;2023-05-27T11:27:21;102605.19;;;18.59;48.69
64844;BME280;51310;52.198;5.422;2023-05-27T11:29:51;102581.50;;;18.27;47.72
64844;BME280;51310;52.198;5.422;2023-05-27T11:32:18;102600.31;;;18.44;47.57
64844;BME280;51310;52.198;5.422;2023-05-27T11:34:45;102593.81;;;18.47;48.03
64844;BME280;51310;52.198;5.422;2023-05-27T11:37:12;102557.69;;;18.51;47.63
64844;BME280;51310;52.198;5.422;2023-05-27T11:39:50;102476.47;;;17.86;48.03
64844;BME280;51310;52.198;5.422;2023-05-27T11:42:24;102466.72;;;17.95;47.90
64844;BME280;51310;52.198;5.422;2023-05-27T11:44:53;102468.38;;;17.78;47.79
64844;BME280;51310;52.198;5.422;2023-05-27T11:47:20;102452.16;;;17.79;47.81
64844;BME280;51310;52.198;5.422;2023-05-27T11:49:50;102581.59;;;18.62;48.35
64844;BME280;51310;52.198;5.422;2023-05-27T11:52:15;102427.72;;;17.55;47.52
64844;BME280;51310;52.198;5.422;2023-05-27T11:54:41;102460.16;;;18.07;47.67
64844;BME280;51310;52.198;5.422;2023-05-27T11:57:07;102538.78;;;18.70;47.59
64844;BME280;51310;52.198;5.422;2023-05-27T11:59:36;102434.03;;;18.18;47.10
64844;BME280;51310;52.198;5.422;2023-05-27T12:02:02;102546.75;;;18.80;46.70
64844;BME280;51310;52.198;5.422;2023-05-27T12:04:32;102553.28;;;18.95;46.67
64844;BME280;51310;52.198;5.422;2023-05-27T12:06:57;102509.72;;;19.19;46.70
64844;BME280;51310;52.198;5.422;2023-05-27T12:09:26;102441.31;;;18.44;45.29
64844;BME280;51310;52.198;5.422;2023-05-27T12:11:52;102426.41;;;18.49;45.08
64844;BME280;51310;52.198;5.422;2023-05-27T12:14:17;102534.50;;;18.95;44.98
64844;BME280;51310;52.198;5.422;2023-05-27T12:16:43;102414.22;;;18.02;44.75
64844;BME280;51310;52.198;5.422;2023-05-27T12:19:09;102405.44;;;18.09;45.10
64844;BME280;51310;52.198;5.422;2023-05-27T12:21:38;102423.38;;;18.44;44.47
64844;BME280;51310;52.198;5.422;2023-05-27T12:24:05;102507.44;;;18.89;43.87
64844;BME280;51310;52.198;5.422;2023-05-27T12:26:31;102409.38;;;18.33;43.72
64844;BME280;51310;52.198;5.422;2023-05-27T12:28:56;102492.84;;;19.09;43.81
64844;BME280;51310;52.198;5.422;2023-05-27T12:31:22;102521.94;;;19.57;44.14
64844;BME280;51310;52.198;5.422;2023-05-27T12:33:50;102424.81;;;19.18;42.83
64844;BME280;51310;52.198;5.422;2023-05-27T12:36:16;102501.13;;;19.59;42.87
64844;BME280;51310;52.198;5.422;2023-05-27T12:38:44;102512.88;;;19.58;43.60
64844;BME280;51310;52.198;5.422;2023-05-27T12:41:09;102473.41;;;19.59;43.71
64844;BME280;51310;52.198;5.422;2023-05-27T12:43:35;102507.63;;;20.25;43.10
64844;BME280;51310;52.198;5.422;2023-05-27T12:46:01;102487.75;;;20.10;42.86
64844;BME280;51310;52.198;5.422;2023-05-27T12:48:27;102377.72;;;18.98;42.92
64844;BME280;51310;52.198;5.422;2023-05-27T12:50:52;102492.78;;;19.71;43.40
64844;BME280;51310;52.198;5.422;2023-05-27T12:53:18;102494.56;;;19.62;43.13
64844;BME280;51310;52.198;5.422;2023-05-27T12:55:44;102491.19;;;19.94;43.65
64844;BME280;51310;52.198;5.422;2023-05-27T12:58:10;102488.91;;;20.07;43.68
64844;BME280;51310;52.198;5.422;2023-05-27T13:00:36;102489.34;;;19.94;43.07
64844;BME280;51310;52.198;5.422;2023-05-27T13:03:02;102475.91;;;19.94;42.98